Almont, Colorado
Current Conditions -  °F | °C
As of 11:55 PM on Friday 31 Oct 2014 (Local Time) from KGUC Reporting Station
Scattered Clouds Scattered Clouds  
Wind Chill: 29°   Ceiling: Unl
Heat Index: 36°   Visibility: 10mi
Dew Point: 21°   Wind: 9mph
Humidity: 56%   Direction: 20°NNE
Pressure: 30.25"   Gusts: NA
Location:  38.66°N, 106.85°W
Report Text: KGUC 010555Z AUTO 02008KT 10SM SCT080 02/M06 A3025 RMK AO1 10150 20010 52007
Loading
Personal Weather Stations






























Interactive Weather Map
Tropical Storm Tracking
New forecast layout! Learn more

10-Day Weather Forecast

Advertisements
Track Severe Weather on mobile